Terminal Aerodrome Forecast
Issued by NWS Bismarck, ND

Home | Current Version | Previous Version | Graphics & Text | Print | Product List | Glossary On
Versions: 1 2 3 4 5 6 7 8 9 10 11 12 13 14 15 16 17
000
FTUS43 KBIS 151408 AAA
TAFBIS
TAF AMD
KBIS 151408Z 1514/1612 25006KT P6SM SCT080 BKN100
     FM151600 28012KT P6SM SCT080
     FM151800 30017G27KT P6SM SKC
     FM152300 30009KT P6SM SKC
     FM161000 19005KT P6SM SKC=

USA.gov is the U.S. government's official web portal to all federal, state and local government web resources and services.